createdAt,value
2019-05-21T00:01:20.909Z,69.12
2019-05-21T00:03:51.133Z,68.87
2019-05-21T00:06:21.288Z,68.87
2019-05-21T00:08:51.493Z,68.74
2019-05-21T00:11:21.632Z,68.90
2019-05-21T00:13:51.798Z,69.61
2019-05-21T00:16:22.052Z,70.41
2019-05-21T00:18:52.174Z,70.87
2019-05-21T00:21:22.301Z,70.50
2019-05-21T00:23:52.434Z,69.91
2019-05-21T00:26:23.653Z,69.61
2019-05-21T00:29:29.789Z,69.60
2019-05-21T00:32:36.030Z,69.93
2019-05-21T00:35:48.633Z,69.94
2019-05-21T00:38:54.709Z,70.39
2019-05-21T00:42:06.305Z,71.04
2019-05-21T00:44:40.295Z,71.11
2019-05-21T00:47:11.962Z,70.86
2019-05-21T00:49:42.422Z,69.96
2019-05-21T00:52:12.563Z,69.99
2019-05-21T00:54:42.682Z,70.68
2019-05-21T00:57:12.810Z,71.17
2019-05-21T00:59:42.942Z,72.74
2019-05-21T01:02:13.144Z,73.00
2019-05-21T01:04:43.305Z,72.95
2019-05-21T01:07:13.455Z,72.00
2019-05-21T01:09:43.586Z,71.69
2019-05-21T01:12:15.790Z,72.11
2019-05-21T01:14:45.943Z,71.55
2019-05-21T01:17:16.114Z,71.95
2019-05-21T01:19:46.296Z,72.37
2019-05-21T01:22:16.433Z,71.95
2019-05-21T01:24:46.609Z,70.72
2019-05-21T01:27:16.753Z,70.69
2019-05-21T01:29:46.883Z,70.84
2019-05-21T01:32:17.016Z,70.60
2019-05-21T01:34:47.178Z,70.68
2019-05-21T01:37:17.338Z,70.19
2019-05-21T01:39:47.492Z,70.59
2019-05-21T01:42:17.654Z,70.92
2019-05-21T01:44:47.799Z,70.26
2019-05-21T01:47:17.927Z,70.32
2019-05-21T01:49:48.053Z,70.91
2019-05-21T01:52:18.186Z,70.25
2019-05-21T01:54:48.342Z,70.09
2019-05-21T01:57:18.497Z,69.46
2019-05-21T01:59:48.644Z,69.98
2019-05-21T02:02:18.774Z,69.47
2019-05-21T02:04:48.945Z,68.29
2019-05-21T02:07:19.106Z,68.27
2019-05-21T02:09:58.263Z,68.33
2019-05-21T02:12:28.616Z,69.21
2019-05-21T02:14:58.869Z,70.09
2019-05-21T02:17:29.034Z,70.21
2019-05-21T02:19:59.162Z,69.79
2019-05-21T02:22:29.329Z,69.65
2019-05-21T02:24:59.445Z,70.65
2019-05-21T02:27:29.612Z,70.54
2019-05-21T02:30:00.819Z,71.52
2019-05-21T02:32:31.043Z,71.78
2019-05-21T02:35:01.188Z,71.06
2019-05-21T02:37:31.369Z,71.82
2019-05-21T02:40:01.522Z,71.99
2019-05-21T02:42:31.698Z,72.88
2019-05-21T02:45:01.897Z,73.10
2019-05-21T02:47:32.055Z,72.51
2019-05-21T02:50:03.093Z,71.64
2019-05-21T02:52:33.234Z,71.78
2019-05-21T02:55:03.365Z,72.06
2019-05-21T02:57:41.297Z,71.58
2019-05-21T03:00:40.966Z,71.32
2019-05-21T03:03:11.991Z,71.44
2019-05-21T03:05:42.134Z,71.48
2019-05-21T03:08:12.279Z,71.73
2019-05-21T03:10:42.416Z,72.08
2019-05-21T03:13:12.551Z,72.42
2019-05-21T03:15:42.694Z,72.41
2019-05-21T03:18:12.915Z,72.54
2019-05-21T03:20:43.099Z,71.76
2019-05-21T03:23:13.265Z,71.45
2019-05-21T03:25:43.406Z,71.58
2019-05-21T03:28:13.611Z,71.45
2019-05-21T03:30:43.815Z,71.82
2019-05-21T03:33:14.032Z,71.80
2019-05-21T03:35:44.187Z,72.44
2019-05-21T03:38:14.313Z,72.12
2019-05-21T03:40:44.452Z,72.06
2019-05-21T03:43:14.606Z,71.94
2019-05-21T03:45:45.610Z,71.78
2019-05-21T03:48:15.744Z,71.63
2019-05-21T03:50:45.927Z,71.11
2019-05-21T03:53:16.072Z,70.65
2019-05-21T03:55:46.398Z,70.58
2019-05-21T03:58:16.582Z,70.26
2019-05-21T04:00:46.727Z,70.28
2019-05-21T04:03:17.094Z,70.01
2019-05-21T04:05:47.221Z,70.03
2019-05-21T04:08:17.511Z,70.21
2019-05-21T04:10:47.651Z,70.10
2019-05-21T04:13:17.804Z,69.96
2019-05-21T04:16:03.081Z,70.04
2019-05-21T04:18:38.368Z,69.87
2019-05-21T04:21:08.549Z,70.05
2019-05-21T04:23:39.661Z,70.24
2019-05-21T04:26:09.824Z,70.20
2019-05-21T04:28:40.059Z,70.02
2019-05-21T04:31:10.198Z,69.58
2019-05-21T04:33:40.366Z,69.36
2019-05-21T04:36:10.473Z,69.49
2019-05-21T04:38:40.606Z,69.58
2019-05-21T04:41:10.795Z,69.37
2019-05-21T04:43:40.924Z,69.17
2019-05-21T04:46:11.101Z,69.19
2019-05-21T04:48:41.219Z,68.96
2019-05-21T04:51:13.942Z,68.98
2019-05-21T04:53:44.423Z,68.85
2019-05-21T04:56:14.611Z,68.72
2019-05-21T04:58:44.879Z,68.24
2019-05-21T05:01:15.875Z,68.24
2019-05-21T05:03:46.176Z,68.39
2019-05-21T05:06:16.438Z,68.33
2019-05-21T05:08:46.568Z,67.99
2019-05-21T05:11:16.772Z,67.98
2019-05-21T05:13:47.044Z,67.75
2019-05-21T05:16:17.131Z,68.06
2019-05-21T05:18:47.285Z,67.61
2019-05-21T05:21:19.710Z,67.15
2019-05-21T05:23:49.962Z,66.83
2019-05-21T05:26:20.927Z,66.01
2019-05-21T05:28:51.089Z,65.67
2019-05-21T05:31:21.232Z,65.49
2019-05-21T05:33:51.532Z,65.33
2019-05-21T05:36:21.683Z,64.69
2019-05-21T05:38:51.821Z,64.00
2019-05-21T05:41:21.959Z,63.66
2019-05-21T05:43:52.180Z,63.89
2019-05-21T05:46:22.302Z,64.24
2019-05-21T05:49:04.021Z,64.34
2019-05-21T05:51:34.228Z,64.43
2019-05-21T05:54:07.562Z,64.70
2019-05-21T05:56:36.208Z,64.97
2019-05-21T05:59:06.351Z,64.76
2019-05-21T06:01:36.482Z,64.60
2019-05-21T06:04:07.325Z,64.64
2019-05-21T06:06:37.490Z,64.66
2019-05-21T06:09:07.714Z,64.58
2019-05-21T06:11:38.000Z,64.52
2019-05-21T06:14:08.178Z,64.24
2019-05-21T06:16:38.303Z,63.85
2019-05-21T06:19:08.439Z,63.31
2019-05-21T06:21:38.581Z,62.74
2019-05-21T06:24:08.717Z,62.73
2019-05-21T06:26:38.862Z,61.79
2019-05-21T06:29:09.023Z,61.10
2019-05-21T06:31:39.152Z,60.98
2019-05-21T06:34:09.286Z,60.26
2019-05-21T06:36:39.485Z,58.44
2019-05-21T06:39:09.609Z,57.68
2019-05-21T06:41:39.749Z,56.76
2019-05-21T06:44:09.899Z,56.69
2019-05-21T06:46:40.049Z,55.68
2019-05-21T06:49:10.175Z,54.47
2019-05-21T06:51:40.306Z,54.81
2019-05-21T06:54:11.235Z,55.25
2019-05-21T06:56:41.370Z,54.25
2019-05-21T06:59:11.612Z,52.96
2019-05-21T07:01:41.789Z,52.77
2019-05-21T07:04:11.944Z,52.29
2019-05-21T07:06:44.739Z,51.88
2019-05-21T07:09:13.970Z,50.61
2019-05-21T07:11:44.145Z,50.26
2019-05-21T07:14:15.395Z,49.87
2019-05-21T07:16:45.555Z,49.13
2019-05-21T07:19:15.734Z,49.59
2019-05-21T07:21:45.862Z,49.30
2019-05-21T07:24:16.011Z,48.40
2019-05-21T07:26:46.182Z,47.65
2019-05-21T07:29:16.352Z,47.31
2019-05-21T07:31:46.459Z,46.71
2019-05-21T07:34:16.614Z,46.70
2019-05-21T07:36:46.757Z,46.74
2019-05-21T07:39:16.901Z,45.80
2019-05-21T07:41:47.044Z,46.22
2019-05-21T07:44:18.274Z,45.65
2019-05-21T07:46:48.616Z,45.05
2019-05-21T07:49:18.756Z,46.14
2019-05-21T07:51:48.940Z,45.71
2019-05-21T07:54:19.109Z,46.37
2019-05-21T07:56:49.267Z,46.88
2019-05-21T07:59:19.400Z,46.56
2019-05-21T08:01:49.551Z,46.53
2019-05-21T08:04:19.688Z,46.60
2019-05-21T08:06:49.822Z,46.71
2019-05-21T08:09:19.979Z,47.30
2019-05-21T08:11:50.310Z,47.36
2019-05-21T08:14:20.632Z,47.32
2019-05-21T08:16:50.785Z,46.83
2019-05-21T08:19:21.885Z,47.07
2019-05-21T08:21:53.313Z,46.10
2019-05-21T08:24:23.462Z,45.87
2019-05-21T08:26:53.624Z,46.25
2019-05-21T08:29:23.795Z,44.79
2019-05-21T08:31:53.975Z,44.29
2019-05-21T08:34:24.098Z,44.29
2019-05-21T08:36:54.229Z,44.05
2019-05-21T08:39:28.771Z,43.51
2019-05-21T08:41:56.229Z,44.69
2019-05-21T08:44:26.371Z,44.80
2019-05-21T08:46:56.525Z,44.21
2019-05-21T08:49:26.703Z,44.33
2019-05-21T08:51:56.851Z,42.90
2019-05-21T08:54:44.697Z,43.37
2019-05-21T08:57:14.834Z,42.23
2019-05-21T08:59:44.986Z,43.06
2019-05-21T09:02:15.229Z,43.13
2019-05-21T09:04:46.801Z,42.81
2019-05-21T09:07:16.997Z,43.49
2019-05-21T09:09:50.754Z,43.79
2019-05-21T09:12:20.037Z,44.81
2019-05-21T09:14:50.180Z,45.11
2019-05-21T09:17:20.345Z,46.05
2019-05-21T09:19:50.458Z,45.56
2019-05-21T09:22:20.625Z,45.14
2019-05-21T09:24:50.822Z,45.14
2019-05-21T09:27:22.093Z,44.34
2019-05-21T09:29:52.579Z,44.28
2019-05-21T09:32:22.718Z,45.07
2019-05-21T09:34:52.898Z,45.22
2019-05-21T09:37:23.026Z,45.65
2019-05-21T09:39:53.168Z,46.65
2019-05-21T09:42:23.307Z,47.49
2019-05-21T09:44:53.534Z,48.40
2019-05-21T09:47:23.679Z,49.37
2019-05-21T09:49:54.401Z,50.21
2019-05-21T09:52:24.649Z,50.81
2019-05-21T09:54:54.809Z,51.59
2019-05-21T09:57:39.563Z,52.19
2019-05-21T10:00:16.885Z,52.59
2019-05-21T10:02:47.010Z,52.61
2019-05-21T10:05:17.312Z,52.66
2019-05-21T10:07:47.443Z,52.37
2019-05-21T10:10:17.849Z,52.21
2019-05-21T10:12:48.007Z,51.98
2019-05-21T10:15:19.229Z,52.53
2019-05-21T10:17:50.324Z,52.37
2019-05-21T10:20:20.661Z,52.56
2019-05-21T10:22:50.794Z,52.63
2019-05-21T10:25:21.060Z,52.92
2019-05-21T10:27:51.270Z,52.44
2019-05-21T10:30:21.426Z,52.45
2019-05-21T10:32:51.589Z,52.48
2019-05-21T10:35:21.965Z,53.07
2019-05-21T10:37:55.322Z,53.09
2019-05-21T10:40:24.138Z,52.56
2019-05-21T10:42:54.236Z,52.00
2019-05-21T10:45:24.370Z,51.42
2019-05-21T10:47:54.697Z,51.43
2019-05-21T10:50:24.989Z,51.31
2019-05-21T10:52:55.336Z,51.21
2019-05-21T10:55:25.464Z,50.78
2019-05-21T10:57:55.591Z,51.32
2019-05-21T11:00:26.907Z,52.25
2019-05-21T11:03:05.040Z,52.20
2019-05-21T11:05:40.344Z,51.94
2019-05-21T11:08:23.705Z,51.55
2019-05-21T11:10:43.241Z,52.52
2019-05-21T11:13:13.464Z,52.20
2019-05-21T11:15:43.658Z,52.89
2019-05-21T11:18:13.787Z,53.33
2019-05-21T11:20:43.933Z,53.43
2019-05-21T11:23:14.089Z,54.43
2019-05-21T11:25:44.205Z,54.49
2019-05-21T11:28:14.331Z,55.04
2019-05-21T11:30:44.479Z,54.62
2019-05-21T11:33:14.619Z,54.11
2019-05-21T11:35:44.765Z,53.60
2019-05-21T11:38:14.899Z,53.24
2019-05-21T11:40:50.560Z,53.45
2019-05-21T11:43:16.935Z,51.26
2019-05-21T11:45:47.064Z,51.06
2019-05-21T11:48:17.186Z,51.42
2019-05-21T11:50:47.350Z,50.96
2019-05-21T11:53:17.513Z,51.22
2019-05-21T11:55:47.731Z,51.46
2019-05-21T11:58:17.852Z,51.44
2019-05-21T12:00:47.979Z,50.70
2019-05-21T12:03:18.094Z,50.69
2019-05-21T12:05:49.085Z,50.94
2019-05-21T12:08:19.271Z,50.29
2019-05-21T12:10:49.519Z,49.71
2019-05-21T12:13:20.921Z,49.80
2019-05-21T12:15:51.148Z,50.84
2019-05-21T12:18:21.285Z,50.28
2019-05-21T12:20:51.466Z,50.02
2019-05-21T12:23:21.912Z,49.99
2019-05-21T12:25:52.099Z,49.49
2019-05-21T12:28:22.310Z,49.27
2019-05-21T12:30:52.440Z,49.80
2019-05-21T12:33:22.581Z,49.76
2019-05-21T12:35:52.711Z,50.52
2019-05-21T12:38:22.859Z,50.69
2019-05-21T12:40:52.984Z,50.38
2019-05-21T12:43:23.118Z,51.08
2019-05-21T12:45:53.258Z,51.05
2019-05-21T12:48:23.391Z,50.77
2019-05-21T12:50:53.544Z,51.50
2019-05-21T12:53:24.134Z,51.76
2019-05-21T12:55:54.328Z,50.51
2019-05-21T12:58:24.479Z,50.01
2019-05-21T13:00:54.618Z,50.24
2019-05-21T13:03:24.761Z,49.84
2019-05-21T13:05:54.886Z,49.87
2019-05-21T13:08:25.029Z,50.52
2019-05-21T13:10:55.243Z,50.53
2019-05-21T13:13:25.369Z,50.81
2019-05-21T13:15:55.506Z,50.86
2019-05-21T13:18:25.631Z,51.09
2019-05-21T13:20:55.761Z,51.60
2019-05-21T13:23:26.969Z,52.48
2019-05-21T13:25:57.258Z,52.30
2019-05-21T13:28:27.383Z,52.70
2019-05-21T13:30:57.595Z,53.03
2019-05-21T13:33:27.723Z,53.56
2019-05-21T13:35:57.963Z,53.80
2019-05-21T13:38:28.262Z,53.78
2019-05-21T13:40:58.683Z,53.63
2019-05-21T13:43:28.830Z,53.67
2019-05-21T13:45:59.024Z,53.67
2019-05-21T13:48:29.129Z,54.28
2019-05-21T13:50:59.272Z,54.87
2019-05-21T13:53:29.497Z,54.56
2019-05-21T13:55:59.653Z,54.70
2019-05-21T13:58:29.795Z,54.78
2019-05-21T14:01:00.306Z,54.73
2019-05-21T14:03:30.469Z,54.48
2019-05-21T14:06:01.920Z,54.58
2019-05-21T14:08:32.074Z,54.81
2019-05-21T14:11:03.098Z,54.66
2019-05-21T14:13:33.292Z,54.62
2019-05-21T14:16:03.476Z,54.72
2019-05-21T14:18:33.620Z,54.87
2019-05-21T14:21:03.777Z,54.92
2019-05-21T14:23:35.113Z,55.03
2019-05-21T14:26:05.458Z,55.56
2019-05-21T14:28:35.650Z,55.36
2019-05-21T14:31:05.849Z,55.25
2019-05-21T14:33:36.002Z,55.50
2019-05-21T14:36:06.212Z,55.45
2019-05-21T14:38:36.425Z,55.67
2019-05-21T14:41:06.929Z,56.00
2019-05-21T14:43:38.201Z,55.62
2019-05-21T14:46:08.352Z,55.70
2019-05-21T14:48:38.485Z,55.65
2019-05-21T14:51:13.142Z,55.83
2019-05-21T14:53:40.690Z,55.88
2019-05-21T14:56:10.908Z,56.23
2019-05-21T14:58:41.060Z,56.35
2019-05-21T15:01:11.167Z,56.23
2019-05-21T15:03:41.316Z,56.61
2019-05-21T15:06:12.284Z,56.83
2019-05-21T15:08:42.405Z,56.74
2019-05-21T15:11:12.529Z,57.31
2019-05-21T15:13:42.687Z,57.20
2019-05-21T15:16:12.839Z,57.32
2019-05-21T15:18:43.015Z,57.76
2019-05-21T15:21:21.514Z,57.94
2019-05-21T15:23:52.682Z,57.46
2019-05-21T15:26:23.893Z,57.23
2019-05-21T15:28:55.109Z,57.23
2019-05-21T15:31:25.387Z,57.32
2019-05-21T15:33:55.712Z,57.80
2019-05-21T15:36:26.063Z,57.59
2019-05-21T15:38:56.226Z,57.96
2019-05-21T15:41:26.429Z,57.78
2019-05-21T15:43:56.573Z,58.17
2019-05-21T15:46:26.784Z,58.63
2019-05-21T15:48:56.916Z,58.67
2019-05-21T15:51:27.046Z,58.66
2019-05-21T15:53:58.425Z,58.51
2019-05-21T15:56:28.501Z,58.59
2019-05-21T15:58:58.633Z,58.85
2019-05-21T16:01:28.765Z,59.25
2019-05-21T16:03:58.891Z,59.00
2019-05-21T16:06:30.592Z,59.09
2019-05-21T16:09:00.809Z,58.84
2019-05-21T16:11:31.526Z,58.96
2019-05-21T16:14:01.713Z,58.77
2019-05-21T16:16:31.856Z,59.10
2019-05-21T16:19:02.111Z,59.06
2019-05-21T16:21:32.212Z,58.99
2019-05-21T16:24:02.340Z,58.76
2019-05-21T16:26:32.528Z,58.43
2019-05-21T16:29:02.665Z,58.54
2019-05-21T16:31:32.801Z,58.66
2019-05-21T16:34:02.930Z,59.16
2019-05-21T16:36:33.177Z,58.87
2019-05-21T16:39:05.003Z,59.04
2019-05-21T16:41:44.226Z,59.21
2019-05-21T16:44:07.035Z,59.38
2019-05-21T16:46:37.183Z,59.46
2019-05-21T16:49:07.327Z,59.56
2019-05-21T16:51:38.535Z,59.41
2019-05-21T16:54:08.711Z,59.46
2019-05-21T16:56:38.881Z,59.66
2019-05-21T16:59:08.953Z,59.73
2019-05-21T17:01:39.108Z,59.85
2019-05-21T17:04:09.224Z,59.95
2019-05-21T17:06:39.409Z,60.09
2019-05-21T17:09:12.769Z,60.10
2019-05-21T17:11:42.928Z,59.75
2019-05-21T17:14:13.093Z,59.74
2019-05-21T17:16:43.198Z,59.78
2019-05-21T17:19:13.529Z,59.96
2019-05-21T17:21:44.750Z,59.64
2019-05-21T17:24:14.873Z,59.99
2019-05-21T17:26:45.016Z,59.92
2019-05-21T17:29:16.200Z,59.72
2019-05-21T17:31:46.356Z,60.08
2019-05-21T17:34:16.536Z,59.74
2019-05-21T17:36:46.880Z,59.63
2019-05-21T17:39:17.384Z,59.53
2019-05-21T17:41:47.551Z,59.84
2019-05-21T17:44:17.673Z,60.80
2019-05-21T17:46:47.934Z,60.39
2019-05-21T17:49:19.367Z,60.46
2019-05-21T17:51:50.469Z,60.91
2019-05-21T17:54:20.830Z,60.57
2019-05-21T17:56:50.995Z,60.54
2019-05-21T17:59:22.455Z,60.45
2019-05-21T18:01:53.349Z,60.45
2019-05-21T18:04:23.733Z,60.44
2019-05-21T18:06:53.951Z,60.27
2019-05-21T18:09:24.374Z,60.84
2019-05-21T18:11:54.549Z,61.15
2019-05-21T18:14:25.586Z,61.02
2019-05-21T18:16:56.113Z,60.97
2019-05-21T18:19:26.517Z,61.50
2019-05-21T18:21:57.095Z,61.66
2019-05-21T18:24:27.620Z,61.63
2019-05-21T18:26:57.992Z,60.91
2019-05-21T18:29:28.117Z,60.73
2019-05-21T18:31:58.377Z,60.55
2019-05-21T18:34:28.521Z,60.76
2019-05-21T18:36:58.731Z,60.64
2019-05-21T18:39:29.182Z,60.52
2019-05-21T18:41:59.385Z,60.67
2019-05-21T18:44:29.522Z,60.59
2019-05-21T18:46:59.676Z,60.60
2019-05-21T18:49:29.875Z,60.67
2019-05-21T18:52:00.219Z,60.74
2019-05-21T18:54:30.482Z,60.82
2019-05-21T18:57:00.718Z,60.68
2019-05-21T18:59:30.992Z,60.62
2019-05-21T19:02:01.308Z,60.46
2019-05-21T19:04:31.476Z,60.46
2019-05-21T19:07:01.912Z,60.63
2019-05-21T19:09:32.166Z,60.71
2019-05-21T19:12:02.954Z,60.47
2019-05-21T19:14:33.568Z,60.42
2019-05-21T19:17:03.814Z,60.30
2019-05-21T19:19:33.950Z,60.37
2019-05-21T19:22:04.288Z,60.33
2019-05-21T19:24:34.452Z,60.77
2019-05-21T19:27:04.755Z,61.12
2019-05-21T19:29:35.009Z,61.71
2019-05-21T19:32:06.467Z,61.96
2019-05-21T19:34:36.619Z,62.23
2019-05-21T19:37:06.849Z,62.11
2019-05-21T19:39:37.348Z,61.94
2019-05-21T19:42:07.509Z,61.99
2019-05-21T19:44:37.656Z,61.89
2019-05-21T19:47:08.903Z,61.77
2019-05-21T19:49:39.057Z,61.83
2019-05-21T19:52:10.777Z,62.00
2019-05-21T19:54:40.943Z,62.24
2019-05-21T19:57:11.277Z,62.48
2019-05-21T19:59:41.557Z,62.78
2019-05-21T20:02:11.966Z,62.56
2019-05-21T20:04:42.902Z,62.52
2019-05-21T20:07:15.212Z,62.09
2019-05-21T20:09:49.125Z,62.05
2019-05-21T20:12:19.371Z,61.96
2019-05-21T20:14:49.674Z,61.95
2019-05-21T20:17:20.570Z,62.13
2019-05-21T20:19:52.577Z,62.11
2019-05-21T20:22:26.239Z,62.02
2019-05-21T20:24:55.611Z,62.06
2019-05-21T20:27:26.065Z,62.32
2019-05-21T20:30:11.540Z,62.35
2019-05-21T20:32:31.524Z,62.65
2019-05-21T20:35:01.819Z,62.82
2019-05-21T20:37:32.153Z,63.12
2019-05-21T20:40:02.305Z,63.69
2019-05-21T20:42:32.727Z,63.87
2019-05-21T20:45:03.041Z,64.00
2019-05-21T20:47:34.580Z,64.07
2019-05-21T20:50:05.746Z,64.14
2019-05-21T20:52:36.416Z,63.76
2019-05-21T20:55:08.230Z,63.56
2019-05-21T20:57:38.949Z,63.41
2019-05-21T21:00:11.009Z,63.56
2019-05-21T21:02:44.404Z,63.82
2019-05-21T21:05:15.363Z,64.01
2019-05-21T21:07:45.827Z,64.12
2019-05-21T21:10:16.233Z,64.41
2019-05-21T21:12:46.931Z,64.67
2019-05-21T21:15:17.274Z,64.78
2019-05-21T21:17:47.436Z,64.84
2019-05-21T21:20:17.680Z,64.95
2019-05-21T21:22:47.829Z,64.84
2019-05-21T21:25:24.266Z,65.04
2019-05-21T21:27:55.600Z,65.20
2019-05-21T21:30:25.916Z,65.28
2019-05-21T21:32:56.943Z,65.53
2019-05-21T21:35:27.145Z,65.40
2019-05-21T21:37:57.874Z,65.26
2019-05-21T21:40:28.309Z,65.27
2019-05-21T21:42:58.844Z,65.09
2019-05-21T21:45:29.055Z,64.95
2019-05-21T21:47:59.209Z,64.95
2019-05-21T21:50:29.640Z,65.12
2019-05-21T21:52:59.775Z,65.40
2019-05-21T21:55:31.974Z,65.43
2019-05-21T21:58:02.076Z,65.52
2019-05-21T22:01:27.959Z,65.54
2019-05-21T22:04:02.112Z,65.80
2019-05-21T22:06:35.497Z,65.66
2019-05-21T22:09:10.146Z,65.81
2019-05-21T22:11:40.828Z,66.39
2019-05-21T22:14:10.993Z,66.52
2019-05-21T22:16:41.245Z,66.28
2019-05-21T22:19:11.847Z,66.28
2019-05-21T22:21:43.006Z,66.44
2019-05-21T22:24:13.667Z,66.67
2019-05-21T22:26:43.809Z,66.64
2019-05-21T22:29:13.948Z,66.80
2019-05-21T22:31:44.665Z,66.43
2019-05-21T22:34:15.107Z,66.22
2019-05-21T22:36:45.253Z,66.27
2019-05-21T22:39:20.122Z,66.20
2019-05-21T22:41:50.245Z,65.83
2019-05-21T22:44:21.400Z,65.82
2019-05-21T22:46:52.441Z,65.64
2019-05-21T22:49:22.654Z,65.99
2019-05-21T22:51:54.023Z,66.09
2019-05-21T22:54:24.265Z,66.33
2019-05-21T22:56:54.404Z,66.75
2019-05-21T22:59:24.540Z,67.00
2019-05-21T23:01:56.702Z,67.17
2019-05-21T23:04:26.869Z,67.50
2019-05-21T23:06:58.763Z,66.90
2019-05-21T23:09:28.902Z,66.93
2019-05-21T23:11:59.043Z,66.84
2019-05-21T23:14:29.569Z,66.76
2019-05-21T23:17:01.758Z,66.72
2019-05-21T23:19:45.891Z,66.66
2019-05-21T23:22:18.517Z,66.78
2019-05-21T23:24:49.801Z,66.93
2019-05-21T23:27:20.705Z,67.05
2019-05-21T23:29:51.113Z,67.03
2019-05-21T23:32:21.621Z,66.96
2019-05-21T23:34:53.583Z,66.99
2019-05-21T23:37:25.371Z,67.06
2019-05-21T23:39:55.620Z,67.08
2019-05-21T23:42:30.203Z,67.09
2019-05-21T23:44:58.002Z,67.21
2019-05-21T23:47:28.137Z,67.17
2019-05-21T23:49:58.693Z,67.12
2019-05-21T23:52:29.428Z,67.27
2019-05-21T23:55:00.168Z,67.26
2019-05-21T23:57:33.352Z,67.79
